sensor_id;sensor_type;location;lat;lon;timestamp;temperature;humidity
36552;DHT22;22559;54.176;12.102;2022-07-29T00:00:04;13.60;99.90
36552;DHT22;22559;54.176;12.102;2022-07-29T00:02:30;13.60;99.90
36552;DHT22;22559;54.176;12.102;2022-07-29T00:04:57;13.50;99.90
36552;DHT22;22559;54.176;12.102;2022-07-29T00:07:23;13.50;99.90
36552;DHT22;22559;54.176;12.102;2022-07-29T00:09:48;13.50;99.90
36552;DHT22;22559;54.176;12.102;2022-07-29T00:12:14;13.40;99.90
36552;DHT22;22559;54.176;12.102;2022-07-29T00:14:40;13.40;99.90
36552;DHT22;22559;54.176;12.102;2022-07-29T00:17:05;13.30;99.90
36552;DHT22;22559;54.176;12.102;2022-07-29T00:19:31;13.30;99.90
36552;DHT22;22559;54.176;12.102;2022-07-29T00:21:56;13.20;99.90
36552;DHT22;22559;54.176;12.102;2022-07-29T00:24:22;13.10;99.90
36552;DHT22;22559;54.176;12.102;2022-07-29T00:26:48;13.00;99.90
36552;DHT22;22559;54.176;12.102;2022-07-29T00:29:13;13.00;99.90
36552;DHT22;22559;54.176;12.102;2022-07-29T00:31:39;12.90;99.90
36552;DHT22;22559;54.176;12.102;2022-07-29T00:34:04;12.90;99.90
36552;DHT22;22559;54.176;12.102;2022-07-29T00:36:31;12.80;99.90
36552;DHT22;22559;54.176;12.102;2022-07-29T00:38:58;12.70;99.90
36552;DHT22;22559;54.176;12.102;2022-07-29T00:41:23;12.70;99.90
36552;DHT22;22559;54.176;12.102;2022-07-29T00:43:49;12.70;99.90
36552;DHT22;22559;54.176;12.102;2022-07-29T00:46:15;12.70;99.90
36552;DHT22;22559;54.176;12.102;2022-07-29T00:48:40;12.60;99.90
36552;DHT22;22559;54.176;12.102;2022-07-29T00:51:06;12.50;99.90
36552;DHT22;22559;54.176;12.102;2022-07-29T00:53:33;12.50;99.90
36552;DHT22;22559;54.176;12.102;2022-07-29T00:55:59;12.50;99.90
36552;DHT22;22559;54.176;12.102;2022-07-29T00:58:26;12.50;99.90
36552;DHT22;22559;54.176;12.102;2022-07-29T01:00:52;12.50;99.90
36552;DHT22;22559;54.176;12.102;2022-07-29T01:03:17;12.50;99.90
36552;DHT22;22559;54.176;12.102;2022-07-29T01:05:44;12.60;99.90
36552;DHT22;22559;54.176;12.102;2022-07-29T01:08:12;12.60;99.90
36552;DHT22;22559;54.176;12.102;2022-07-29T01:10:39;12.60;99.90
36552;DHT22;22559;54.176;12.102;2022-07-29T01:13:06;12.50;99.90
36552;DHT22;22559;54.176;12.102;2022-07-29T01:15:36;12.50;99.90
36552;DHT22;22559;54.176;12.102;2022-07-29T01:18:22;12.40;99.90
36552;DHT22;22559;54.176;12.102;2022-07-29T01:21:17;12.40;99.90
36552;DHT22;22559;54.176;12.102;2022-07-29T01:26:49;12.40;99.90
36552;DHT22;22559;54.176;12.102;2022-07-29T01:29:41;12.40;99.90
36552;DHT22;22559;54.176;12.102;2022-07-29T01:32:12;12.40;99.90
36552;DHT22;22559;54.176;12.102;2022-07-29T01:39:56;12.40;99.90
36552;DHT22;22559;54.176;12.102;2022-07-29T01:42:42;12.50;99.90
36552;DHT22;22559;54.176;12.102;2022-07-29T01:45:26;12.50;99.90
36552;DHT22;22559;54.176;12.102;2022-07-29T01:48:03;12.50;99.90
36552;DHT22;22559;54.176;12.102;2022-07-29T01:50:36;12.50;99.90
36552;DHT22;22559;54.176;12.102;2022-07-29T01:53:06;12.30;99.90
36552;DHT22;22559;54.176;12.102;2022-07-29T01:55:36;12.30;99.90
36552;DHT22;22559;54.176;12.102;2022-07-29T01:58:04;12.20;99.90
36552;DHT22;22559;54.176;12.102;2022-07-29T02:00:32;12.30;99.90
36552;DHT22;22559;54.176;12.102;2022-07-29T02:03:00;12.30;99.90
36552;DHT22;22559;54.176;12.102;2022-07-29T02:05:28;12.40;99.90
36552;DHT22;22559;54.176;12.102;2022-07-29T02:07:56;12.40;99.90
36552;DHT22;22559;54.176;12.102;2022-07-29T02:10:26;12.40;99.90
36552;DHT22;22559;54.176;12.102;2022-07-29T02:12:54;12.40;99.90
36552;DHT22;22559;54.176;12.102;2022-07-29T02:15:26;12.30;99.90
36552;DHT22;22559;54.176;12.102;2022-07-29T02:17:59;12.20;99.90
36552;DHT22;22559;54.176;12.102;2022-07-29T02:20:28;12.20;99.90
36552;DHT22;22559;54.176;12.102;2022-07-29T02:22:54;12.10;99.90
36552;DHT22;22559;54.176;12.102;2022-07-29T02:25:22;12.10;99.90
36552;DHT22;22559;54.176;12.102;2022-07-29T02:27:50;12.20;99.90
36552;DHT22;22559;54.176;12.102;2022-07-29T02:30:17;12.10;99.90
36552;DHT22;22559;54.176;12.102;2022-07-29T02:32:43;12.10;99.90
36552;DHT22;22559;54.176;12.102;2022-07-29T02:35:12;12.20;99.90
36552;DHT22;22559;54.176;12.102;2022-07-29T02:37:39;12.10;99.90
36552;DHT22;22559;54.176;12.102;2022-07-29T02:40:09;12.10;99.90
36552;DHT22;22559;54.176;12.102;2022-07-29T02:42:36;12.10;99.90
36552;DHT22;22559;54.176;12.102;2022-07-29T02:45:04;12.20;99.90
36552;DHT22;22559;54.176;12.102;2022-07-29T02:47:42;12.10;99.90
36552;DHT22;22559;54.176;12.102;2022-07-29T02:50:11;12.10;99.90
36552;DHT22;22559;54.176;12.102;2022-07-29T02:55:16;12.10;99.90
36552;DHT22;22559;54.176;12.102;2022-07-29T02:58:05;12.10;99.90
36552;DHT22;22559;54.176;12.102;2022-07-29T03:00:37;12.20;99.90
36552;DHT22;22559;54.176;12.102;2022-07-29T03:03:07;12.20;99.90
36552;DHT22;22559;54.176;12.102;2022-07-29T03:05:34;12.10;99.90
36552;DHT22;22559;54.176;12.102;2022-07-29T03:08:03;12.20;99.90
36552;DHT22;22559;54.176;12.102;2022-07-29T03:10:30;12.20;99.90
36552;DHT22;22559;54.176;12.102;2022-07-29T03:12:56;12.20;99.90
36552;DHT22;22559;54.176;12.102;2022-07-29T03:15:23;12.30;99.90
36552;DHT22;22559;54.176;12.102;2022-07-29T03:17:49;12.30;99.90
36552;DHT22;22559;54.176;12.102;2022-07-29T03:20:16;12.30;99.90
36552;DHT22;22559;54.176;12.102;2022-07-29T03:22:43;12.30;99.90
36552;DHT22;22559;54.176;12.102;2022-07-29T03:25:13;12.40;99.90
36552;DHT22;22559;54.176;12.102;2022-07-29T03:27:40;12.40;99.90
36552;DHT22;22559;54.176;12.102;2022-07-29T03:30:06;12.40;99.90
36552;DHT22;22559;54.176;12.102;2022-07-29T03:32:32;12.40;99.90
36552;DHT22;22559;54.176;12.102;2022-07-29T03:34:58;12.40;99.90
36552;DHT22;22559;54.176;12.102;2022-07-29T03:37:24;12.50;99.90
36552;DHT22;22559;54.176;12.102;2022-07-29T03:39:51;12.40;99.90
36552;DHT22;22559;54.176;12.102;2022-07-29T03:42:19;12.50;99.90
36552;DHT22;22559;54.176;12.102;2022-07-29T03:44:48;12.50;99.90
36552;DHT22;22559;54.176;12.102;2022-07-29T03:47:15;12.50;99.90
36552;DHT22;22559;54.176;12.102;2022-07-29T03:49:42;12.50;99.90
36552;DHT22;22559;54.176;12.102;2022-07-29T03:52:10;12.60;99.90
36552;DHT22;22559;54.176;12.102;2022-07-29T03:54:36;12.60;99.90
36552;DHT22;22559;54.176;12.102;2022-07-29T03:57:02;12.70;99.90
36552;DHT22;22559;54.176;12.102;2022-07-29T03:59:30;12.70;99.90
36552;DHT22;22559;54.176;12.102;2022-07-29T04:01:58;12.80;99.90
36552;DHT22;22559;54.176;12.102;2022-07-29T04:04:24;12.80;99.90
36552;DHT22;22559;54.176;12.102;2022-07-29T04:06:50;12.80;99.90
36552;DHT22;22559;54.176;12.102;2022-07-29T04:09:16;12.80;99.90
36552;DHT22;22559;54.176;12.102;2022-07-29T04:11:42;12.90;99.90
36552;DHT22;22559;54.176;12.102;2022-07-29T04:14:08;12.90;99.90
36552;DHT22;22559;54.176;12.102;2022-07-29T04:16:33;13.00;99.90
36552;DHT22;22559;54.176;12.102;2022-07-29T04:18:59;13.00;99.90
36552;DHT22;22559;54.176;12.102;2022-07-29T04:21:25;13.00;99.90
36552;DHT22;22559;54.176;12.102;2022-07-29T04:23:50;13.10;99.90
36552;DHT22;22559;54.176;12.102;2022-07-29T04:26:17;13.10;99.90
36552;DHT22;22559;54.176;12.102;2022-07-29T04:28:43;13.10;99.90
36552;DHT22;22559;54.176;12.102;2022-07-29T04:31:10;13.20;99.90
36552;DHT22;22559;54.176;12.102;2022-07-29T04:33:35;13.30;99.90
36552;DHT22;22559;54.176;12.102;2022-07-29T04:36:01;13.30;99.90
36552;DHT22;22559;54.176;12.102;2022-07-29T04:38:27;13.40;99.90
36552;DHT22;22559;54.176;12.102;2022-07-29T04:40:52;13.40;99.90
36552;DHT22;22559;54.176;12.102;2022-07-29T04:43:18;13.50;99.90
36552;DHT22;22559;54.176;12.102;2022-07-29T04:45:44;13.60;99.90
36552;DHT22;22559;54.176;12.102;2022-07-29T04:48:10;13.60;99.90
36552;DHT22;22559;54.176;12.102;2022-07-29T04:50:38;13.80;99.90
36552;DHT22;22559;54.176;12.102;2022-07-29T04:53:05;13.80;99.90
36552;DHT22;22559;54.176;12.102;2022-07-29T04:55:30;13.90;99.90
36552;DHT22;22559;54.176;12.102;2022-07-29T04:57:56;14.00;99.90
36552;DHT22;22559;54.176;12.102;2022-07-29T05:00:22;14.10;99.90
36552;DHT22;22559;54.176;12.102;2022-07-29T05:02:48;14.20;99.90
36552;DHT22;22559;54.176;12.102;2022-07-29T05:05:14;14.20;99.90
36552;DHT22;22559;54.176;12.102;2022-07-29T05:07:40;14.20;99.90
36552;DHT22;22559;54.176;12.102;2022-07-29T05:10:06;14.30;99.90
36552;DHT22;22559;54.176;12.102;2022-07-29T05:12:32;14.30;99.90
36552;DHT22;22559;54.176;12.102;2022-07-29T05:14:57;14.40;99.90
36552;DHT22;22559;54.176;12.102;2022-07-29T05:17:23;14.50;99.90
36552;DHT22;22559;54.176;12.102;2022-07-29T05:19:49;14.50;99.90
36552;DHT22;22559;54.176;12.102;2022-07-29T05:22:19;14.60;99.90
36552;DHT22;22559;54.176;12.102;2022-07-29T05:24:45;14.70;99.90
36552;DHT22;22559;54.176;12.102;2022-07-29T05:27:11;14.70;99.90
36552;DHT22;22559;54.176;12.102;2022-07-29T05:29:36;14.70;99.90
36552;DHT22;22559;54.176;12.102;2022-07-29T05:32:03;14.80;99.90
36552;DHT22;22559;54.176;12.102;2022-07-29T05:34:29;14.80;99.90
36552;DHT22;22559;54.176;12.102;2022-07-29T05:36:54;14.80;99.90
36552;DHT22;22559;54.176;12.102;2022-07-29T05:39:20;14.90;99.90
36552;DHT22;22559;54.176;12.102;2022-07-29T05:41:46;14.90;99.90
36552;DHT22;22559;54.176;12.102;2022-07-29T05:44:11;14.90;99.90
36552;DHT22;22559;54.176;12.102;2022-07-29T05:46:38;15.00;99.90
36552;DHT22;22559;54.176;12.102;2022-07-29T05:49:04;15.00;99.90
36552;DHT22;22559;54.176;12.102;2022-07-29T05:51:32;15.00;99.90
36552;DHT22;22559;54.176;12.102;2022-07-29T05:53:58;15.00;99.90
36552;DHT22;22559;54.176;12.102;2022-07-29T05:56:24;15.00;99.90
36552;DHT22;22559;54.176;12.102;2022-07-29T05:58:50;15.10;99.90
36552;DHT22;22559;54.176;12.102;2022-07-29T06:01:15;15.10;99.90
36552;DHT22;22559;54.176;12.102;2022-07-29T06:03:41;15.30;99.90
36552;DHT22;22559;54.176;12.102;2022-07-29T06:06:07;15.40;99.90
36552;DHT22;22559;54.176;12.102;2022-07-29T06:08:33;15.40;99.90
36552;DHT22;22559;54.176;12.102;2022-07-29T06:11:00;15.40;99.90
36552;DHT22;22559;54.176;12.102;2022-07-29T06:13:25;15.60;99.90
36552;DHT22;22559;54.176;12.102;2022-07-29T06:15:51;15.70;99.90
36552;DHT22;22559;54.176;12.102;2022-07-29T06:18:17;15.80;99.90
36552;DHT22;22559;54.176;12.102;2022-07-29T06:20:43;15.90;99.90
36552;DHT22;22559;54.176;12.102;2022-07-29T06:23:08;16.00;99.90
36552;DHT22;22559;54.176;12.102;2022-07-29T06:25:35;16.10;99.90
36552;DHT22;22559;54.176;12.102;2022-07-29T06:28:02;16.20;99.90
36552;DHT22;22559;54.176;12.102;2022-07-29T06:30:28;16.30;99.90
36552;DHT22;22559;54.176;12.102;2022-07-29T06:32:56;16.40;99.90
36552;DHT22;22559;54.176;12.102;2022-07-29T06:35:22;16.40;99.90
36552;DHT22;22559;54.176;12.102;2022-07-29T06:37:47;16.50;99.90
36552;DHT22;22559;54.176;12.102;2022-07-29T06:40:13;16.60;99.90
36552;DHT22;22559;54.176;12.102;2022-07-29T06:42:57;16.60;99.90
36552;DHT22;22559;54.176;12.102;2022-07-29T06:45:23;16.70;99.90
36552;DHT22;22559;54.176;12.102;2022-07-29T06:47:49;16.70;99.90
36552;DHT22;22559;54.176;12.102;2022-07-29T06:50:15;16.70;99.90
36552;DHT22;22559;54.176;12.102;2022-07-29T06:52:41;16.70;99.90
36552;DHT22;22559;54.176;12.102;2022-07-29T06:55:07;16.80;99.90
36552;DHT22;22559;54.176;12.102;2022-07-29T06:57:33;17.00;99.90
36552;DHT22;22559;54.176;12.102;2022-07-29T06:59:59;17.20;99.90
36552;DHT22;22559;54.176;12.102;2022-07-29T07:02:24;17.60;99.90
36552;DHT22;22559;54.176;12.102;2022-07-29T07:04:50;18.50;99.90
36552;DHT22;22559;54.176;12.102;2022-07-29T07:07:16;19.20;99.90
36552;DHT22;22559;54.176;12.102;2022-07-29T07:09:41;20.00;99.90
36552;DHT22;22559;54.176;12.102;2022-07-29T07:12:07;20.90;99.90
36552;DHT22;22559;54.176;12.102;2022-07-29T07:14:33;21.60;99.90
36552;DHT22;22559;54.176;12.102;2022-07-29T07:16:58;22.00;99.90
36552;DHT22;22559;54.176;12.102;2022-07-29T07:19:26;21.90;99.90
36552;DHT22;22559;54.176;12.102;2022-07-29T07:21:54;21.70;99.90
36552;DHT22;22559;54.176;12.102;2022-07-29T07:24:19;22.00;99.90
36552;DHT22;22559;54.176;12.102;2022-07-29T07:26:45;22.40;99.90
36552;DHT22;22559;54.176;12.102;2022-07-29T07:29:10;22.60;99.90
36552;DHT22;22559;54.176;12.102;2022-07-29T07:31:37;22.30;99.90
36552;DHT22;22559;54.176;12.102;2022-07-29T07:34:03;22.10;99.90
36552;DHT22;22559;54.176;12.102;2022-07-29T07:36:29;21.80;99.90
36552;DHT22;22559;54.176;12.102;2022-07-29T07:38:54;21.60;99.90
36552;DHT22;22559;54.176;12.102;2022-07-29T07:41:20;21.80;99.90
36552;DHT22;22559;54.176;12.102;2022-07-29T07:43:46;22.20;99.90
36552;DHT22;22559;54.176;12.102;2022-07-29T07:46:12;22.40;99.90
36552;DHT22;22559;54.176;12.102;2022-07-29T07:48:38;22.40;99.90
36552;DHT22;22559;54.176;12.102;2022-07-29T07:51:03;22.40;99.90
36552;DHT22;22559;54.176;12.102;2022-07-29T07:53:29;22.60;99.90
36552;DHT22;22559;54.176;12.102;2022-07-29T07:55:55;22.40;99.90
36552;DHT22;22559;54.176;12.102;2022-07-29T07:58:21;22.30;99.90
36552;DHT22;22559;54.176;12.102;2022-07-29T08:00:47;22.10;99.90
36552;DHT22;22559;54.176;12.102;2022-07-29T08:03:13;22.30;99.90
36552;DHT22;22559;54.176;12.102;2022-07-29T08:05:39;22.80;99.90
36552;DHT22;22559;54.176;12.102;2022-07-29T08:08:06;23.30;99.90
36552;DHT22;22559;54.176;12.102;2022-07-29T08:10:32;23.60;99.90
36552;DHT22;22559;54.176;12.102;2022-07-29T08:13:16;23.90;99.90
36552;DHT22;22559;54.176;12.102;2022-07-29T08:15:42;23.90;99.90
36552;DHT22;22559;54.176;12.102;2022-07-29T08:18:08;24.20;99.90
36552;DHT22;22559;54.176;12.102;2022-07-29T08:20:35;24.80;99.90
36552;DHT22;22559;54.176;12.102;2022-07-29T08:23:02;25.10;99.90
36552;DHT22;22559;54.176;12.102;2022-07-29T08:25:28;25.10;99.90
36552;DHT22;22559;54.176;12.102;2022-07-29T08:27:54;25.50;99.90
36552;DHT22;22559;54.176;12.102;2022-07-29T08:30:19;25.70;99.90
36552;DHT22;22559;54.176;12.102;2022-07-29T08:32:45;25.50;99.90
36552;DHT22;22559;54.176;12.102;2022-07-29T08:35:12;25.60;99.90
36552;DHT22;22559;54.176;12.102;2022-07-29T08:37:38;25.50;99.90
36552;DHT22;22559;54.176;12.102;2022-07-29T08:40:04;25.60;99.90
36552;DHT22;22559;54.176;12.102;2022-07-29T08:42:31;25.20;99.90
36552;DHT22;22559;54.176;12.102;2022-07-29T08:44:57;24.90;99.90
36552;DHT22;22559;54.176;12.102;2022-07-29T08:47:23;24.70;99.90
36552;DHT22;22559;54.176;12.102;2022-07-29T08:49:51;24.60;99.90
36552;DHT22;22559;54.176;12.102;2022-07-29T08:52:18;24.20;99.90
36552;DHT22;22559;54.176;12.102;2022-07-29T08:54:44;23.60;99.90
36552;DHT22;22559;54.176;12.102;2022-07-29T08:57:14;23.10;99.90
36552;DHT22;22559;54.176;12.102;2022-07-29T08:59:41;22.80;99.90
36552;DHT22;22559;54.176;12.102;2022-07-29T09:02:16;22.50;99.90
36552;DHT22;22559;54.176;12.102;2022-07-29T09:04:44;22.30;99.90
36552;DHT22;22559;54.176;12.102;2022-07-29T09:07:17;22.40;99.90
36552;DHT22;22559;54.176;12.102;2022-07-29T09:09:43;22.60;99.90
36552;DHT22;22559;54.176;12.102;2022-07-29T09:12:10;22.70;99.90
36552;DHT22;22559;54.176;12.102;2022-07-29T09:14:38;22.70;99.90
36552;DHT22;22559;54.176;12.102;2022-07-29T09:17:04;22.70;99.90
36552;DHT22;22559;54.176;12.102;2022-07-29T09:19:32;22.70;99.90
36552;DHT22;22559;54.176;12.102;2022-07-29T09:22:00;23.00;99.90
36552;DHT22;22559;54.176;12.102;2022-07-29T09:24:46;23.30;99.90
36552;DHT22;22559;54.176;12.102;2022-07-29T09:27:24;23.50;99.90
36552;DHT22;22559;54.176;12.102;2022-07-29T09:30:05;24.40;99.90
36552;DHT22;22559;54.176;12.102;2022-07-29T09:32:33;24.90;99.90
36552;DHT22;22559;54.176;12.102;2022-07-29T09:35:19;25.70;99.90
36552;DHT22;22559;54.176;12.102;2022-07-29T09:37:45;25.80;99.90
36552;DHT22;22559;54.176;12.102;2022-07-29T09:40:23;26.10;99.90
36552;DHT22;22559;54.176;12.102;2022-07-29T09:42:49;26.10;99.90
36552;DHT22;22559;54.176;12.102;2022-07-29T09:45:30;26.30;99.90
36552;DHT22;22559;54.176;12.102;2022-07-29T09:47:56;26.70;99.90
36552;DHT22;22559;54.176;12.102;2022-07-29T09:50:55;26.90;99.90
36552;DHT22;22559;54.176;12.102;2022-07-29T09:53:34;27.10;99.90
36552;DHT22;22559;54.176;12.102;2022-07-29T09:56:01;26.60;99.90
36552;DHT22;22559;54.176;12.102;2022-07-29T09:58:27;26.70;99.90
36552;DHT22;22559;54.176;12.102;2022-07-29T10:00:54;27.10;99.90
36552;DHT22;22559;54.176;12.102;2022-07-29T10:03:21;26.00;99.90
36552;DHT22;22559;54.176;12.102;2022-07-29T10:06:05;25.50;99.90
36552;DHT22;22559;54.176;12.102;2022-07-29T10:08:30;24.80;99.90
36552;DHT22;22559;54.176;12.102;2022-07-29T10:11:09;24.00;99.90
36552;DHT22;22559;54.176;12.102;2022-07-29T10:13:35;23.70;99.90
36552;DHT22;22559;54.176;12.102;2022-07-29T10:16:01;23.50;99.90
36552;DHT22;22559;54.176;12.102;2022-07-29T10:18:27;23.40;99.90
36552;DHT22;22559;54.176;12.102;2022-07-29T10:20:53;23.20;99.90
36552;DHT22;22559;54.176;12.102;2022-07-29T10:23:20;23.30;99.90
36552;DHT22;22559;54.176;12.102;2022-07-29T10:25:46;23.30;99.90
36552;DHT22;22559;54.176;12.102;2022-07-29T10:28:11;23.40;99.90
36552;DHT22;22559;54.176;12.102;2022-07-29T10:30:38;23.50;99.90
36552;DHT22;22559;54.176;12.102;2022-07-29T10:33:15;23.70;99.90
36552;DHT22;22559;54.176;12.102;2022-07-29T10:36:24;23.70;99.90
36552;DHT22;22559;54.176;12.102;2022-07-29T10:39:15;23.90;99.90
36552;DHT22;22559;54.176;12.102;2022-07-29T10:44:35;24.30;99.90
36552;DHT22;22559;54.176;12.102;2022-07-29T10:47:04;24.40;99.90
36552;DHT22;22559;54.176;12.102;2022-07-29T10:49:30;24.50;99.90
36552;DHT22;22559;54.176;12.102;2022-07-29T10:57:23;24.30;99.90
36552;DHT22;22559;54.176;12.102;2022-07-29T11:05:06;24.70;99.90
36552;DHT22;22559;54.176;12.102;2022-07-29T11:07:33;24.70;99.90
36552;DHT22;22559;54.176;12.102;2022-07-29T11:15:09;26.30;99.90
36552;DHT22;22559;54.176;12.102;2022-07-29T11:20:40;26.50;99.90
36552;DHT22;22559;54.176;12.102;2022-07-29T11:23:26;26.50;99.90
36552;DHT22;22559;54.176;12.102;2022-07-29T11:29:00;25.60;99.90
36552;DHT22;22559;54.176;12.102;2022-07-29T11:31:43;25.80;99.90
36552;DHT22;22559;54.176;12.102;2022-07-29T11:34:16;26.20;99.90
36552;DHT22;22559;54.176;12.102;2022-07-29T11:39:30;26.60;99.90
36552;DHT22;22559;54.176;12.102;2022-07-29T11:47:29;26.70;99.90
36552;DHT22;22559;54.176;12.102;2022-07-29T11:49:56;26.30;99.90
36552;DHT22;22559;54.176;12.102;2022-07-29T11:55:09;26.30;99.90
36552;DHT22;22559;54.176;12.102;2022-07-29T11:57:35;26.30;99.90
36552;DHT22;22559;54.176;12.102;2022-07-29T12:00:04;25.90;99.90
36552;DHT22;22559;54.176;12.102;2022-07-29T12:02:43;25.30;99.90
36552;DHT22;22559;54.176;12.102;2022-07-29T12:05:10;24.90;99.90
36552;DHT22;22559;54.176;12.102;2022-07-29T12:07:39;24.70;99.90
36552;DHT22;22559;54.176;12.102;2022-07-29T12:10:07;24.50;99.90
36552;DHT22;22559;54.176;12.102;2022-07-29T12:12:34;24.10;99.90
36552;DHT22;22559;54.176;12.102;2022-07-29T12:15:17;23.90;99.90
36552;DHT22;22559;54.176;12.102;2022-07-29T12:17:47;23.80;99.90
36552;DHT22;22559;54.176;12.102;2022-07-29T12:20:13;23.50;99.90
36552;DHT22;22559;54.176;12.102;2022-07-29T12:22:40;23.70;99.90
36552;DHT22;22559;54.176;12.102;2022-07-29T12:25:10;23.50;99.90
36552;DHT22;22559;54.176;12.102;2022-07-29T12:27:37;23.60;99.90
36552;DHT22;22559;54.176;12.102;2022-07-29T12:30:08;23.80;99.90
36552;DHT22;22559;54.176;12.102;2022-07-29T12:32:34;23.80;99.90
36552;DHT22;22559;54.176;12.102;2022-07-29T12:35:03;24.00;99.90
36552;DHT22;22559;54.176;12.102;2022-07-29T12:37:30;24.00;99.90
36552;DHT22;22559;54.176;12.102;2022-07-29T12:39:56;24.20;99.90
36552;DHT22;22559;54.176;12.102;2022-07-29T12:42:22;24.50;99.90
36552;DHT22;22559;54.176;12.102;2022-07-29T12:44:48;24.40;99.90
36552;DHT22;22559;54.176;12.102;2022-07-29T12:47:16;24.40;99.90
36552;DHT22;22559;54.176;12.102;2022-07-29T12:49:44;24.20;99.90
36552;DHT22;22559;54.176;12.102;2022-07-29T12:52:31;24.00;99.90
36552;DHT22;22559;54.176;12.102;2022-07-29T12:54:58;23.80;99.90
36552;DHT22;22559;54.176;12.102;2022-07-29T12:57:23;23.50;99.90
36552;DHT22;22559;54.176;12.102;2022-07-29T13:00:07;23.30;99.90
36552;DHT22;22559;54.176;12.102;2022-07-29T13:02:41;23.10;99.90
36552;DHT22;22559;54.176;12.102;2022-07-29T13:05:09;23.20;99.90
36552;DHT22;22559;54.176;12.102;2022-07-29T13:07:35;23.30;99.90
36552;DHT22;22559;54.176;12.102;2022-07-29T13:10:17;23.20;99.90
36552;DHT22;22559;54.176;12.102;2022-07-29T13:13:03;23.10;99.90
36552;DHT22;22559;54.176;12.102;2022-07-29T13:15:29;23.20;99.90
36552;DHT22;22559;54.176;12.102;2022-07-29T13:17:55;23.30;99.90
36552;DHT22;22559;54.176;12.102;2022-07-29T13:20:24;23.30;99.90
36552;DHT22;22559;54.176;12.102;2022-07-29T13:22:53;23.30;99.90
36552;DHT22;22559;54.176;12.102;2022-07-29T13:25:29;23.40;99.90
36552;DHT22;22559;54.176;12.102;2022-07-29T13:27:57;23.60;99.90
36552;DHT22;22559;54.176;12.102;2022-07-29T13:30:23;23.80;99.90
36552;DHT22;22559;54.176;12.102;2022-07-29T13:32:50;23.90;99.90
36552;DHT22;22559;54.176;12.102;2022-07-29T13:35:17;23.90;99.90
36552;DHT22;22559;54.176;12.102;2022-07-29T13:37:43;24.00;99.90
36552;DHT22;22559;54.176;12.102;2022-07-29T13:40:10;24.40;99.90
36552;DHT22;22559;54.176;12.102;2022-07-29T13:42:36;24.60;99.90
36552;DHT22;22559;54.176;12.102;2022-07-29T13:45:03;24.80;99.90
36552;DHT22;22559;54.176;12.102;2022-07-29T13:47:30;25.20;99.90
36552;DHT22;22559;54.176;12.102;2022-07-29T13:49:56;25.80;99.90
36552;DHT22;22559;54.176;12.102;2022-07-29T13:52:21;26.20;99.90
36552;DHT22;22559;54.176;12.102;2022-07-29T13:54:47;26.20;99.90
36552;DHT22;22559;54.176;12.102;2022-07-29T13:57:13;26.20;99.90
36552;DHT22;22559;54.176;12.102;2022-07-29T13:59:41;26.00;99.90
36552;DHT22;22559;54.176;12.102;2022-07-29T14:02:08;25.70;99.90
36552;DHT22;22559;54.176;12.102;2022-07-29T14:04:34;25.50;99.90
36552;DHT22;22559;54.176;12.102;2022-07-29T14:07:00;25.50;99.90
36552;DHT22;22559;54.176;12.102;2022-07-29T14:09:26;25.50;99.90
36552;DHT22;22559;54.176;12.102;2022-07-29T14:11:51;25.70;99.90
36552;DHT22;22559;54.176;12.102;2022-07-29T14:14:18;25.80;99.90
36552;DHT22;22559;54.176;12.102;2022-07-29T14:16:44;26.10;99.90
36552;DHT22;22559;54.176;12.102;2022-07-29T14:19:10;26.40;99.90
36552;DHT22;22559;54.176;12.102;2022-07-29T14:21:38;26.40;99.90
36552;DHT22;22559;54.176;12.102;2022-07-29T14:24:05;26.30;99.90
36552;DHT22;22559;54.176;12.102;2022-07-29T14:26:31;26.20;99.90
36552;DHT22;22559;54.176;12.102;2022-07-29T14:28:57;26.10;99.90
36552;DHT22;22559;54.176;12.102;2022-07-29T14:31:22;26.10;99.90
36552;DHT22;22559;54.176;12.102;2022-07-29T14:33:48;26.10;99.90
36552;DHT22;22559;54.176;12.102;2022-07-29T14:36:14;26.20;99.90
36552;DHT22;22559;54.176;12.102;2022-07-29T14:38:39;26.20;99.90
36552;DHT22;22559;54.176;12.102;2022-07-29T14:41:06;26.20;99.90
36552;DHT22;22559;54.176;12.102;2022-07-29T14:43:33;26.10;99.90
36552;DHT22;22559;54.176;12.102;2022-07-29T14:46:00;26.20;99.90
36552;DHT22;22559;54.176;12.102;2022-07-29T14:48:26;26.30;99.90
36552;DHT22;22559;54.176;12.102;2022-07-29T14:50:51;26.50;99.90
36552;DHT22;22559;54.176;12.102;2022-07-29T14:53:17;26.60;99.90
36552;DHT22;22559;54.176;12.102;2022-07-29T14:55:43;26.50;99.90
36552;DHT22;22559;54.176;12.102;2022-07-29T14:58:09;26.30;99.90
36552;DHT22;22559;54.176;12.102;2022-07-29T15:00:35;26.20;99.90
36552;DHT22;22559;54.176;12.102;2022-07-29T15:03:02;25.90;99.90
36552;DHT22;22559;54.176;12.102;2022-07-29T15:05:28;25.90;99.90
36552;DHT22;22559;54.176;12.102;2022-07-29T15:07:54;26.40;99.90
36552;DHT22;22559;54.176;12.102;2022-07-29T15:10:19;26.70;99.90
36552;DHT22;22559;54.176;12.102;2022-07-29T15:12:45;27.00;99.90
36552;DHT22;22559;54.176;12.102;2022-07-29T15:15:11;27.10;99.90
36552;DHT22;22559;54.176;12.102;2022-07-29T15:17:37;27.20;99.90
36552;DHT22;22559;54.176;12.102;2022-07-29T15:20:03;27.20;99.90
36552;DHT22;22559;54.176;12.102;2022-07-29T15:22:29;27.20;99.90
36552;DHT22;22559;54.176;12.102;2022-07-29T15:24:54;27.40;99.90
36552;DHT22;22559;54.176;12.102;2022-07-29T15:27:20;27.50;99.90
36552;DHT22;22559;54.176;12.102;2022-07-29T15:29:45;27.60;99.90
36552;DHT22;22559;54.176;12.102;2022-07-29T15:32:11;27.20;99.90
36552;DHT22;22559;54.176;12.102;2022-07-29T15:34:37;27.20;99.90
36552;DHT22;22559;54.176;12.102;2022-07-29T15:37:04;27.50;99.90
36552;DHT22;22559;54.176;12.102;2022-07-29T15:39:30;27.90;99.90
36552;DHT22;22559;54.176;12.102;2022-07-29T15:41:56;27.90;99.90
36552;DHT22;22559;54.176;12.102;2022-07-29T15:44:22;27.70;99.90
36552;DHT22;22559;54.176;12.102;2022-07-29T15:46:48;27.70;99.90
36552;DHT22;22559;54.176;12.102;2022-07-29T15:49:39;27.60;99.90
36552;DHT22;22559;54.176;12.102;2022-07-29T15:52:07;27.70;99.90
36552;DHT22;22559;54.176;12.102;2022-07-29T15:54:35;28.20;99.90
36552;DHT22;22559;54.176;12.102;2022-07-29T15:57:01;28.20;99.90
36552;DHT22;22559;54.176;12.102;2022-07-29T15:59:26;28.10;99.90
36552;DHT22;22559;54.176;12.102;2022-07-29T16:01:52;28.20;99.90
36552;DHT22;22559;54.176;12.102;2022-07-29T16:04:18;28.50;99.90
36552;DHT22;22559;54.176;12.102;2022-07-29T16:06:45;28.30;99.90